createdAt,value
2023-03-25T00:02:11.292Z,14.50
2023-03-25T00:04:48.476Z,14.90
2023-03-25T00:07:35.829Z,15.00
2023-03-25T00:10:08.199Z,14.50
2023-03-25T00:12:41.937Z,14.30
2023-03-25T00:15:15.607Z,14.10
2023-03-25T00:17:53.554Z,13.90
2023-03-25T00:26:33.973Z,15.10
2023-03-25T00:29:03.543Z,15.00
2023-03-25T00:31:36.158Z,13.60
2023-03-25T00:34:15.761Z,15.10
2023-03-25T00:36:49.206Z,15.10
2023-03-25T00:39:18.402Z,14.20
2023-03-25T00:42:09.712Z,13.60
2023-03-25T00:44:44.445Z,16.00
2023-03-25T00:50:26.329Z,15.60
2023-03-25T00:54:05.669Z,16.80
2023-03-25T00:57:09.298Z,14.30
2023-03-25T00:59:41.605Z,15.60
2023-03-25T01:03:22.064Z,15.80
2023-03-25T01:17:52.179Z,15.80
2023-03-25T01:27:31.539Z,16.00
2023-03-25T01:40:48.681Z,16.40
2023-03-25T01:46:27.024Z,16.70
2023-03-25T01:49:17.239Z,16.90
2023-03-25T01:52:40.452Z,15.90
2023-03-25T09:01:26.590Z,6.30
2023-03-25T09:04:00.129Z,5.20
2023-03-25T09:06:48.064Z,6.60
2023-03-25T09:10:59.517Z,7.20
2023-03-25T09:45:31.279Z,7.70
2023-03-25T09:48:45.354Z,5.90
2023-03-25T09:51:17.652Z,6.70
2023-03-25T09:54:16.870Z,6.10
2023-03-25T09:56:47.650Z,6.30
2023-03-25T09:59:20.343Z,6.20
2023-03-25T10:02:04.583Z,6.70
2023-03-25T10:05:00.482Z,7.50
2023-03-25T10:08:13.063Z,6.50
2023-03-25T10:11:03.262Z,7.00
2023-03-25T10:14:46.399Z,7.30
2023-03-25T10:18:40.488Z,6.80
2023-03-25T10:24:46.012Z,7.10
2023-03-25T10:27:37.018Z,6.90
2023-03-25T10:30:27.543Z,7.60
2023-03-25T10:33:01.844Z,8.60
2023-03-25T10:40:40.511Z,7.50
2023-03-25T10:43:46.403Z,8.90
2023-03-25T10:47:06.900Z,8.90
2023-03-25T10:49:37.043Z,9.40
2023-03-25T10:56:56.547Z,8.50
2023-03-25T10:59:58.634Z,8.60
2023-03-25T11:03:21.884Z,9.40
2023-03-25T11:06:00.394Z,9.30
2023-03-25T11:08:52.880Z,8.70
2023-03-25T11:11:39.574Z,10.90
2023-03-25T11:14:38.525Z,9.40
2023-03-25T11:17:45.911Z,8.70
2023-03-25T11:24:23.847Z,9.30
2023-03-25T11:26:57.958Z,8.90
2023-03-25T11:29:30.832Z,11.30
2023-03-25T11:32:38.748Z,8.80
2023-03-25T11:44:52.063Z,8.90
2023-03-25T12:00:18.558Z,8.60
2023-03-25T12:03:33.206Z,9.70
2023-03-25T12:06:59.612Z,10.00
2023-03-25T14:46:28.678Z,10.00
2023-03-25T14:56:52.722Z,10.70
2023-03-25T15:18:02.099Z,11.80
2023-03-25T15:25:02.558Z,11.70
2023-03-25T15:28:19.557Z,11.90
2023-03-25T15:31:21.132Z,12.20
2023-03-25T15:34:09.033Z,13.80
2023-03-25T15:37:43.144Z,12.60
2023-03-25T15:40:41.033Z,13.60
2023-03-25T15:43:59.654Z,13.10
2023-03-25T15:47:51.875Z,14.30
2023-03-25T15:51:12.134Z,14.10
2023-03-25T15:54:09.217Z,15.40
2023-03-25T15:56:48.594Z,15.40
2023-03-25T15:59:53.638Z,19.10
2023-03-25T21:22:09.802Z,19.20
2023-03-25T21:45:14.529Z,19.20
2023-03-25T21:48:10.630Z,18.70
2023-03-25T21:50:59.171Z,20.00
2023-03-25T21:54:14.005Z,20.20
2023-03-25T22:00:18.349Z,19.10
2023-03-25T22:10:17.280Z,19.80
2023-03-25T22:13:28.469Z,18.00
2023-03-25T22:19:47.077Z,25.80
2023-03-25T22:22:46.235Z,17.90
2023-03-25T22:25:35.302Z,19.10
2023-03-25T22:29:32.826Z,17.60
2023-03-25T22:32:10.540Z,19.80
2023-03-25T22:34:43.763Z,18.40
2023-03-25T22:37:22.366Z,18.10
2023-03-25T22:39:54.889Z,20.70
2023-03-25T22:49:05.895Z,18.80
2023-03-25T22:51:48.572Z,19.70
2023-03-25T22:54:32.162Z,18.40
2023-03-25T22:57:07.837Z,18.80
2023-03-25T22:59:39.044Z,17.20
2023-03-25T23:02:25.804Z,17.20
2023-03-25T23:12:06.182Z,17.40
2023-03-25T23:18:45.790Z,18.50
2023-03-25T23:25:19.255Z,17.10
2023-03-25T23:28:21.246Z,19.90
2023-03-25T23:31:40.687Z,18.10
2023-03-25T23:38:11.679Z,16.80
2023-03-25T23:41:32.186Z,17.10
2023-03-25T23:44:04.127Z,15.90
2023-03-25T23:46:47.829Z,15.70
2023-03-25T23:49:27.692Z,16.50
2023-03-25T23:51:59.839Z,17.20
2023-03-25T23:54:29.757Z,15.40
